sensor_id;sensor_type;location;lat;lon;timestamp;P1;durP1;ratioP1;P2;durP2;ratioP2
74291;SDS011;62687;55.738;37.516;2023-07-31T00:00:04;10.23;;;3.20;;
74291;SDS011;62687;55.738;37.516;2023-07-31T00:02:49;7.90;;;2.63;;
74291;SDS011;62687;55.738;37.516;2023-07-31T00:05:33;5.97;;;2.65;;
74291;SDS011;62687;55.738;37.516;2023-07-31T00:08:16;10.77;;;2.78;;
74291;SDS011;62687;55.738;37.516;2023-07-31T00:11:00;9.20;;;2.88;;
74291;SDS011;62687;55.738;37.516;2023-07-31T00:13:44;9.38;;;2.90;;
74291;SDS011;62687;55.738;37.516;2023-07-31T00:16:28;7.93;;;3.13;;
74291;SDS011;62687;55.738;37.516;2023-07-31T00:19:12;7.97;;;2.97;;
74291;SDS011;62687;55.738;37.516;2023-07-31T00:21:56;13.05;;;3.10;;
74291;SDS011;62687;55.738;37.516;2023-07-31T00:24:40;15.07;;;3.60;;
74291;SDS011;62687;55.738;37.516;2023-07-31T00:27:24;12.00;;;3.20;;
74291;SDS011;62687;55.738;37.516;2023-07-31T00:30:08;12.10;;;3.05;;
74291;SDS011;62687;55.738;37.516;2023-07-31T00:32:52;11.55;;;3.42;;
74291;SDS011;62687;55.738;37.516;2023-07-31T00:35:36;9.52;;;4.00;;
74291;SDS011;62687;55.738;37.516;2023-07-31T00:38:20;15.18;;;3.72;;
74291;SDS011;62687;55.738;37.516;2023-07-31T00:41:04;8.15;;;3.10;;
74291;SDS011;62687;55.738;37.516;2023-07-31T00:43:48;11.07;;;3.42;;
74291;SDS011;62687;55.738;37.516;2023-07-31T00:46:32;9.82;;;3.28;;
74291;SDS011;62687;55.738;37.516;2023-07-31T00:49:16;9.35;;;3.25;;
74291;SDS011;62687;55.738;37.516;2023-07-31T00:52:00;8.98;;;3.40;;
74291;SDS011;62687;55.738;37.516;2023-07-31T00:54:46;12.18;;;3.75;;
74291;SDS011;62687;55.738;37.516;2023-07-31T00:57:30;9.40;;;3.08;;
74291;SDS011;62687;55.738;37.516;2023-07-31T01:00:15;10.25;;;3.42;;
74291;SDS011;62687;55.738;37.516;2023-07-31T01:02:59;8.50;;;3.28;;
74291;SDS011;62687;55.738;37.516;2023-07-31T01:08:44;7.55;;;3.30;;
74291;SDS011;62687;55.738;37.516;2023-07-31T01:11:30;6.30;;;2.97;;
74291;SDS011;62687;55.738;37.516;2023-07-31T01:14:15;8.65;;;2.95;;
74291;SDS011;62687;55.738;37.516;2023-07-31T01:16:59;7.95;;;2.65;;
74291;SDS011;62687;55.738;37.516;2023-07-31T01:19:43;11.63;;;3.10;;
74291;SDS011;62687;55.738;37.516;2023-07-31T01:22:30;12.25;;;3.17;;
74291;SDS011;62687;55.738;37.516;2023-07-31T01:28:31;8.73;;;3.53;;
74291;SDS011;62687;55.738;37.516;2023-07-31T01:31:18;7.18;;;2.83;;
74291;SDS011;62687;55.738;37.516;2023-07-31T01:34:03;9.63;;;3.03;;
74291;SDS011;62687;55.738;37.516;2023-07-31T01:36:48;12.55;;;3.05;;
74291;SDS011;62687;55.738;37.516;2023-07-31T01:39:32;7.88;;;2.85;;
74291;SDS011;62687;55.738;37.516;2023-07-31T01:42:16;10.63;;;3.22;;
74291;SDS011;62687;55.738;37.516;2023-07-31T01:45:00;8.23;;;2.60;;
74291;SDS011;62687;55.738;37.516;2023-07-31T01:47:44;6.32;;;2.80;;
74291;SDS011;62687;55.738;37.516;2023-07-31T01:50:28;9.38;;;2.78;;
74291;SDS011;62687;55.738;37.516;2023-07-31T01:53:12;11.43;;;2.70;;
74291;SDS011;62687;55.738;37.516;2023-07-31T01:55:57;10.32;;;3.10;;
74291;SDS011;62687;55.738;37.516;2023-07-31T01:58:40;7.22;;;2.70;;
74291;SDS011;62687;55.738;37.516;2023-07-31T02:01:24;8.40;;;2.70;;
74291;SDS011;62687;55.738;37.516;2023-07-31T02:04:08;8.27;;;2.47;;
74291;SDS011;62687;55.738;37.516;2023-07-31T02:06:52;8.32;;;2.60;;
74291;SDS011;62687;55.738;37.516;2023-07-31T02:09:37;7.25;;;2.55;;
74291;SDS011;62687;55.738;37.516;2023-07-31T02:12:21;6.43;;;2.45;;
74291;SDS011;62687;55.738;37.516;2023-07-31T02:15:05;6.22;;;3.05;;
74291;SDS011;62687;55.738;37.516;2023-07-31T02:17:49;8.20;;;2.90;;
74291;SDS011;62687;55.738;37.516;2023-07-31T02:20:33;12.23;;;3.00;;
74291;SDS011;62687;55.738;37.516;2023-07-31T02:23:18;7.53;;;3.00;;
74291;SDS011;62687;55.738;37.516;2023-07-31T02:26:02;12.05;;;3.60;;
74291;SDS011;62687;55.738;37.516;2023-07-31T02:28:46;7.90;;;2.80;;
74291;SDS011;62687;55.738;37.516;2023-07-31T02:31:30;10.25;;;3.20;;
74291;SDS011;62687;55.738;37.516;2023-07-31T02:34:14;9.02;;;3.65;;
74291;SDS011;62687;55.738;37.516;2023-07-31T02:36:58;14.30;;;2.85;;
74291;SDS011;62687;55.738;37.516;2023-07-31T02:39:42;8.27;;;3.22;;
74291;SDS011;62687;55.738;37.516;2023-07-31T02:42:26;5.82;;;2.50;;
74291;SDS011;62687;55.738;37.516;2023-07-31T02:45:10;15.55;;;3.20;;
74291;SDS011;62687;55.738;37.516;2023-07-31T02:47:54;5.57;;;2.83;;
74291;SDS011;62687;55.738;37.516;2023-07-31T02:50:38;5.03;;;2.80;;
74291;SDS011;62687;55.738;37.516;2023-07-31T02:53:22;7.80;;;2.75;;
74291;SDS011;62687;55.738;37.516;2023-07-31T02:56:06;7.53;;;2.70;;
74291;SDS011;62687;55.738;37.516;2023-07-31T02:58:50;5.85;;;2.70;;
74291;SDS011;62687;55.738;37.516;2023-07-31T03:01:34;11.52;;;3.28;;
74291;SDS011;62687;55.738;37.516;2023-07-31T03:04:18;9.25;;;3.08;;
74291;SDS011;62687;55.738;37.516;2023-07-31T03:07:02;12.80;;;2.75;;
74291;SDS011;62687;55.738;37.516;2023-07-31T03:09:46;8.07;;;3.08;;
74291;SDS011;62687;55.738;37.516;2023-07-31T03:12:30;10.52;;;3.17;;
74291;SDS011;62687;55.738;37.516;2023-07-31T03:15:14;7.75;;;3.28;;
74291;SDS011;62687;55.738;37.516;2023-07-31T03:17:58;12.88;;;3.50;;
74291;SDS011;62687;55.738;37.516;2023-07-31T03:20:42;14.07;;;3.38;;
74291;SDS011;62687;55.738;37.516;2023-07-31T03:26:11;8.25;;;3.22;;
74291;SDS011;62687;55.738;37.516;2023-07-31T03:28:55;11.75;;;2.90;;
74291;SDS011;62687;55.738;37.516;2023-07-31T03:31:39;8.55;;;3.20;;
74291;SDS011;62687;55.738;37.516;2023-07-31T03:34:23;12.65;;;3.13;;
74291;SDS011;62687;55.738;37.516;2023-07-31T03:37:07;8.98;;;3.30;;
74291;SDS011;62687;55.738;37.516;2023-07-31T03:39:52;5.10;;;2.97;;
74291;SDS011;62687;55.738;37.516;2023-07-31T03:42:36;7.07;;;3.20;;
74291;SDS011;62687;55.738;37.516;2023-07-31T03:45:20;7.65;;;2.58;;
74291;SDS011;62687;55.738;37.516;2023-07-31T03:48:04;6.88;;;2.58;;
74291;SDS011;62687;55.738;37.516;2023-07-31T03:50:48;4.57;;;2.28;;
74291;SDS011;62687;55.738;37.516;2023-07-31T03:53:32;8.45;;;2.42;;
74291;SDS011;62687;55.738;37.516;2023-07-31T03:56:16;5.93;;;2.05;;
74291;SDS011;62687;55.738;37.516;2023-07-31T03:59:00;7.10;;;2.50;;
74291;SDS011;62687;55.738;37.516;2023-07-31T04:01:44;6.30;;;2.60;;
74291;SDS011;62687;55.738;37.516;2023-07-31T04:04:28;6.05;;;2.33;;
74291;SDS011;62687;55.738;37.516;2023-07-31T04:07:12;6.20;;;2.20;;
74291;SDS011;62687;55.738;37.516;2023-07-31T04:09:56;5.75;;;2.00;;
74291;SDS011;62687;55.738;37.516;2023-07-31T04:12:41;4.72;;;2.35;;
74291;SDS011;62687;55.738;37.516;2023-07-31T04:15:25;4.60;;;2.22;;
74291;SDS011;62687;55.738;37.516;2023-07-31T04:18:08;6.82;;;2.50;;
74291;SDS011;62687;55.738;37.516;2023-07-31T04:20:52;4.60;;;1.70;;
74291;SDS011;62687;55.738;37.516;2023-07-31T04:23:36;5.15;;;1.90;;
74291;SDS011;62687;55.738;37.516;2023-07-31T04:26:20;5.10;;;2.45;;
74291;SDS011;62687;55.738;37.516;2023-07-31T04:29:04;5.13;;;1.83;;
74291;SDS011;62687;55.738;37.516;2023-07-31T04:31:48;5.13;;;1.88;;
74291;SDS011;62687;55.738;37.516;2023-07-31T04:34:32;7.55;;;2.22;;
74291;SDS011;62687;55.738;37.516;2023-07-31T04:37:16;7.53;;;2.10;;
74291;SDS011;62687;55.738;37.516;2023-07-31T04:40:00;5.82;;;1.83;;
74291;SDS011;62687;55.738;37.516;2023-07-31T04:42:44;7.57;;;2.08;;
74291;SDS011;62687;55.738;37.516;2023-07-31T04:45:28;3.80;;;1.60;;
74291;SDS011;62687;55.738;37.516;2023-07-31T04:48:12;5.32;;;2.42;;
74291;SDS011;62687;55.738;37.516;2023-07-31T04:50:56;5.75;;;2.10;;
74291;SDS011;62687;55.738;37.516;2023-07-31T04:53:40;5.82;;;1.90;;
74291;SDS011;62687;55.738;37.516;2023-07-31T04:56:24;5.82;;;1.90;;
74291;SDS011;62687;55.738;37.516;2023-07-31T04:59:08;3.80;;;1.67;;
74291;SDS011;62687;55.738;37.516;2023-07-31T05:01:52;4.72;;;2.05;;
74291;SDS011;62687;55.738;37.516;2023-07-31T05:04:36;4.78;;;2.08;;
74291;SDS011;62687;55.738;37.516;2023-07-31T05:07:20;4.85;;;1.90;;
74291;SDS011;62687;55.738;37.516;2023-07-31T05:10:04;10.20;;;2.03;;
74291;SDS011;62687;55.738;37.516;2023-07-31T05:12:48;6.45;;;2.30;;
74291;SDS011;62687;55.738;37.516;2023-07-31T05:15:32;6.78;;;2.70;;
74291;SDS011;62687;55.738;37.516;2023-07-31T05:18:16;8.88;;;2.42;;
74291;SDS011;62687;55.738;37.516;2023-07-31T05:21:00;4.43;;;1.75;;
74291;SDS011;62687;55.738;37.516;2023-07-31T05:23:44;5.40;;;1.88;;
74291;SDS011;62687;55.738;37.516;2023-07-31T05:26:27;3.65;;;2.03;;
74291;SDS011;62687;55.738;37.516;2023-07-31T05:29:12;3.78;;;1.73;;
74291;SDS011;62687;55.738;37.516;2023-07-31T05:31:56;6.47;;;1.98;;
74291;SDS011;62687;55.738;37.516;2023-07-31T05:34:40;5.63;;;1.60;;
74291;SDS011;62687;55.738;37.516;2023-07-31T05:37:24;5.80;;;2.38;;
74291;SDS011;62687;55.738;37.516;2023-07-31T05:40:08;6.35;;;2.13;;
74291;SDS011;62687;55.738;37.516;2023-07-31T05:42:52;6.00;;;1.73;;
74291;SDS011;62687;55.738;37.516;2023-07-31T05:45:36;3.80;;;1.60;;
74291;SDS011;62687;55.738;37.516;2023-07-31T05:48:20;5.38;;;1.80;;
74291;SDS011;62687;55.738;37.516;2023-07-31T05:51:04;6.00;;;1.60;;
74291;SDS011;62687;55.738;37.516;2023-07-31T05:53:48;6.82;;;1.70;;
74291;SDS011;62687;55.738;37.516;2023-07-31T05:56:32;7.25;;;1.92;;
74291;SDS011;62687;55.738;37.516;2023-07-31T05:59:17;4.57;;;1.88;;
74291;SDS011;62687;55.738;37.516;2023-07-31T06:02:01;4.50;;;1.80;;
74291;SDS011;62687;55.738;37.516;2023-07-31T06:04:46;4.75;;;1.42;;
74291;SDS011;62687;55.738;37.516;2023-07-31T06:07:30;5.20;;;1.98;;
74291;SDS011;62687;55.738;37.516;2023-07-31T06:10:14;3.90;;;1.67;;
74291;SDS011;62687;55.738;37.516;2023-07-31T06:12:58;4.50;;;2.05;;
74291;SDS011;62687;55.738;37.516;2023-07-31T06:15:42;3.40;;;1.77;;
74291;SDS011;62687;55.738;37.516;2023-07-31T06:18:26;9.75;;;1.77;;
74291;SDS011;62687;55.738;37.516;2023-07-31T06:21:10;9.98;;;1.52;;
74291;SDS011;62687;55.738;37.516;2023-07-31T06:23:54;4.18;;;1.60;;
74291;SDS011;62687;55.738;37.516;2023-07-31T06:26:38;9.20;;;3.17;;
74291;SDS011;62687;55.738;37.516;2023-07-31T06:29:22;7.60;;;1.95;;
74291;SDS011;62687;55.738;37.516;2023-07-31T06:32:06;3.63;;;1.38;;
74291;SDS011;62687;55.738;37.516;2023-07-31T06:34:51;3.53;;;1.40;;
74291;SDS011;62687;55.738;37.516;2023-07-31T06:37:35;6.97;;;1.70;;
74291;SDS011;62687;55.738;37.516;2023-07-31T06:40:19;3.80;;;1.60;;
74291;SDS011;62687;55.738;37.516;2023-07-31T06:43:03;5.97;;;1.98;;
74291;SDS011;62687;55.738;37.516;2023-07-31T06:45:53;4.13;;;1.00;;
74291;SDS011;62687;55.738;37.516;2023-07-31T06:48:40;8.23;;;1.60;;
74291;SDS011;62687;55.738;37.516;2023-07-31T06:51:26;3.10;;;1.10;;
74291;SDS011;62687;55.738;37.516;2023-07-31T06:54:13;1.77;;;0.90;;
74291;SDS011;62687;55.738;37.516;2023-07-31T06:56:59;6.00;;;1.60;;
74291;SDS011;62687;55.738;37.516;2023-07-31T06:59:45;6.18;;;1.63;;
74291;SDS011;62687;55.738;37.516;2023-07-31T07:02:44;7.15;;;1.42;;
74291;SDS011;62687;55.738;37.516;2023-07-31T07:05:37;11.93;;;1.63;;
74291;SDS011;62687;55.738;37.516;2023-07-31T07:08:25;3.50;;;1.10;;
74291;SDS011;62687;55.738;37.516;2023-07-31T07:11:16;6.25;;;1.17;;
74291;SDS011;62687;55.738;37.516;2023-07-31T07:14:08;3.65;;;1.10;;
74291;SDS011;62687;55.738;37.516;2023-07-31T07:16:58;4.85;;;1.30;;
74291;SDS011;62687;55.738;37.516;2023-07-31T07:19:47;3.65;;;1.10;;
74291;SDS011;62687;55.738;37.516;2023-07-31T07:22:37;2.78;;;0.90;;
74291;SDS011;62687;55.738;37.516;2023-07-31T07:25:24;4.22;;;1.33;;
74291;SDS011;62687;55.738;37.516;2023-07-31T07:28:10;4.53;;;0.80;;
74291;SDS011;62687;55.738;37.516;2023-07-31T07:31:30;5.03;;;1.10;;
74291;SDS011;62687;55.738;37.516;2023-07-31T07:34:32;4.15;;;1.65;;
74291;SDS011;62687;55.738;37.516;2023-07-31T07:40:09;5.22;;;1.52;;
74291;SDS011;62687;55.738;37.516;2023-07-31T07:43:01;5.18;;;1.42;;
74291;SDS011;62687;55.738;37.516;2023-07-31T07:45:49;13.93;;;1.60;;
74291;SDS011;62687;55.738;37.516;2023-07-31T07:48:45;6.15;;;1.50;;
74291;SDS011;62687;55.738;37.516;2023-07-31T07:51:31;3.58;;;1.23;;
74291;SDS011;62687;55.738;37.516;2023-07-31T07:54:16;3.38;;;1.00;;
74291;SDS011;62687;55.738;37.516;2023-07-31T07:57:04;7.50;;;1.35;;
74291;SDS011;62687;55.738;37.516;2023-07-31T07:59:48;2.55;;;1.20;;
74291;SDS011;62687;55.738;37.516;2023-07-31T08:02:32;2.65;;;1.05;;
74291;SDS011;62687;55.738;37.516;2023-07-31T08:05:16;5.50;;;1.20;;
74291;SDS011;62687;55.738;37.516;2023-07-31T08:08:01;2.80;;;1.15;;
74291;SDS011;62687;55.738;37.516;2023-07-31T08:10:45;2.05;;;1.10;;
74291;SDS011;62687;55.738;37.516;2023-07-31T08:13:29;4.53;;;1.30;;
74291;SDS011;62687;55.738;37.516;2023-07-31T08:16:13;5.13;;;1.80;;
74291;SDS011;62687;55.738;37.516;2023-07-31T08:18:57;7.07;;;1.40;;
74291;SDS011;62687;55.738;37.516;2023-07-31T08:21:41;3.00;;;1.02;;
74291;SDS011;62687;55.738;37.516;2023-07-31T08:24:25;2.17;;;1.25;;
74291;SDS011;62687;55.738;37.516;2023-07-31T08:27:09;3.85;;;1.55;;
74291;SDS011;62687;55.738;37.516;2023-07-31T08:29:53;4.63;;;1.20;;
74291;SDS011;62687;55.738;37.516;2023-07-31T08:32:37;3.60;;;1.15;;
74291;SDS011;62687;55.738;37.516;2023-07-31T08:35:21;2.22;;;1.00;;
74291;SDS011;62687;55.738;37.516;2023-07-31T08:38:05;7.35;;;1.40;;
74291;SDS011;62687;55.738;37.516;2023-07-31T08:40:49;3.97;;;1.58;;
74291;SDS011;62687;55.738;37.516;2023-07-31T08:43:33;3.53;;;1.35;;
74291;SDS011;62687;55.738;37.516;2023-07-31T08:46:17;2.97;;;0.90;;
74291;SDS011;62687;55.738;37.516;2023-07-31T08:51:46;2.05;;;1.05;;
74291;SDS011;62687;55.738;37.516;2023-07-31T08:54:30;6.35;;;1.40;;
74291;SDS011;62687;55.738;37.516;2023-07-31T08:57:16;5.40;;;1.40;;
74291;SDS011;62687;55.738;37.516;2023-07-31T09:00:01;4.05;;;1.10;;
74291;SDS011;62687;55.738;37.516;2023-07-31T09:02:46;3.45;;;1.17;;
74291;SDS011;62687;55.738;37.516;2023-07-31T09:05:30;3.95;;;1.48;;
74291;SDS011;62687;55.738;37.516;2023-07-31T09:08:15;7.32;;;1.50;;
74291;SDS011;62687;55.738;37.516;2023-07-31T09:11:01;2.63;;;1.20;;
74291;SDS011;62687;55.738;37.516;2023-07-31T09:13:48;2.90;;;1.30;;
74291;SDS011;62687;55.738;37.516;2023-07-31T09:16:33;6.53;;;1.20;;
74291;SDS011;62687;55.738;37.516;2023-07-31T09:19:24;2.83;;;1.20;;
74291;SDS011;62687;55.738;37.516;2023-07-31T09:22:08;3.00;;;1.20;;
74291;SDS011;62687;55.738;37.516;2023-07-31T09:24:52;4.38;;;1.20;;
74291;SDS011;62687;55.738;37.516;2023-07-31T09:33:29;5.35;;;1.60;;
74291;SDS011;62687;55.738;37.516;2023-07-31T09:36:14;3.08;;;1.10;;
74291;SDS011;62687;55.738;37.516;2023-07-31T09:39:02;3.40;;;1.77;;
74291;SDS011;62687;55.738;37.516;2023-07-31T09:41:47;3.20;;;1.50;;
74291;SDS011;62687;55.738;37.516;2023-07-31T09:44:38;3.13;;;1.02;;
74291;SDS011;62687;55.738;37.516;2023-07-31T09:47:26;2.33;;;1.20;;
74291;SDS011;62687;55.738;37.516;2023-07-31T09:50:10;3.95;;;1.30;;
74291;SDS011;62687;55.738;37.516;2023-07-31T09:52:54;4.30;;;1.40;;
74291;SDS011;62687;55.738;37.516;2023-07-31T09:55:38;3.55;;;1.23;;
74291;SDS011;62687;55.738;37.516;2023-07-31T09:58:22;2.88;;;1.52;;
74291;SDS011;62687;55.738;37.516;2023-07-31T10:01:06;3.22;;;1.20;;
74291;SDS011;62687;55.738;37.516;2023-07-31T10:03:51;3.58;;;1.17;;
74291;SDS011;62687;55.738;37.516;2023-07-31T10:06:35;1.88;;;1.25;;
74291;SDS011;62687;55.738;37.516;2023-07-31T10:09:20;3.72;;;1.10;;
74291;SDS011;62687;55.738;37.516;2023-07-31T10:12:05;4.28;;;1.50;;
74291;SDS011;62687;55.738;37.516;2023-07-31T10:14:54;2.28;;;1.40;;
74291;SDS011;62687;55.738;37.516;2023-07-31T10:17:37;4.13;;;1.38;;
74291;SDS011;62687;55.738;37.516;2023-07-31T10:20:22;4.55;;;1.33;;
74291;SDS011;62687;55.738;37.516;2023-07-31T10:23:05;2.58;;;1.25;;
74291;SDS011;62687;55.738;37.516;2023-07-31T10:25:49;2.58;;;1.02;;
74291;SDS011;62687;55.738;37.516;2023-07-31T10:31:18;2.13;;;1.35;;
74291;SDS011;62687;55.738;37.516;2023-07-31T10:34:03;3.65;;;1.10;;
74291;SDS011;62687;55.738;37.516;2023-07-31T10:36:47;3.45;;;1.55;;
74291;SDS011;62687;55.738;37.516;2023-07-31T10:39:33;3.65;;;1.70;;
74291;SDS011;62687;55.738;37.516;2023-07-31T10:42:17;2.53;;;1.23;;
74291;SDS011;62687;55.738;37.516;2023-07-31T10:45:04;3.47;;;1.42;;
74291;SDS011;62687;55.738;37.516;2023-07-31T10:47:49;2.70;;;1.10;;
74291;SDS011;62687;55.738;37.516;2023-07-31T10:50:37;6.45;;;1.42;;
74291;SDS011;62687;55.738;37.516;2023-07-31T10:53:25;2.97;;;1.50;;
74291;SDS011;62687;55.738;37.516;2023-07-31T10:56:10;3.70;;;1.08;;
74291;SDS011;62687;55.738;37.516;2023-07-31T10:59:02;5.22;;;1.42;;
74291;SDS011;62687;55.738;37.516;2023-07-31T11:01:56;3.22;;;1.40;;
74291;SDS011;62687;55.738;37.516;2023-07-31T11:05:05;3.35;;;1.40;;
74291;SDS011;62687;55.738;37.516;2023-07-31T11:08:41;4.05;;;1.48;;
74291;SDS011;62687;55.738;37.516;2023-07-31T11:14:38;3.05;;;1.17;;
74291;SDS011;62687;55.738;37.516;2023-07-31T11:24:02;2.13;;;1.33;;
74291;SDS011;62687;55.738;37.516;2023-07-31T11:26:54;6.25;;;1.25;;
74291;SDS011;62687;55.738;37.516;2023-07-31T11:29:44;3.47;;;1.10;;
74291;SDS011;62687;55.738;37.516;2023-07-31T11:32:37;5.15;;;1.45;;
74291;SDS011;62687;55.738;37.516;2023-07-31T11:35:47;5.00;;;1.90;;
74291;SDS011;62687;55.738;37.516;2023-07-31T11:38:34;3.53;;;1.98;;
74291;SDS011;62687;55.738;37.516;2023-07-31T11:41:18;5.47;;;1.55;;
74291;SDS011;62687;55.738;37.516;2023-07-31T11:44:09;2.30;;;1.40;;
74291;SDS011;62687;55.738;37.516;2023-07-31T11:46:59;6.97;;;1.50;;
74291;SDS011;62687;55.738;37.516;2023-07-31T11:49:48;3.03;;;1.38;;
74291;SDS011;62687;55.738;37.516;2023-07-31T11:52:38;5.53;;;1.40;;
74291;SDS011;62687;55.738;37.516;2023-07-31T11:55:25;5.85;;;1.48;;
74291;SDS011;62687;55.738;37.516;2023-07-31T11:58:19;4.47;;;1.60;;
74291;SDS011;62687;55.738;37.516;2023-07-31T12:01:26;2.83;;;1.40;;
74291;SDS011;62687;55.738;37.516;2023-07-31T12:04:17;2.78;;;1.33;;
74291;SDS011;62687;55.738;37.516;2023-07-31T12:07:01;5.10;;;1.60;;
74291;SDS011;62687;55.738;37.516;2023-07-31T12:09:54;5.28;;;2.03;;
74291;SDS011;62687;55.738;37.516;2023-07-31T12:12:39;4.97;;;1.63;;
74291;SDS011;62687;55.738;37.516;2023-07-31T12:15:28;7.10;;;2.63;;
74291;SDS011;62687;55.738;37.516;2023-07-31T12:18:13;7.15;;;2.38;;
74291;SDS011;62687;55.738;37.516;2023-07-31T12:20:58;5.47;;;1.85;;
74291;SDS011;62687;55.738;37.516;2023-07-31T12:23:43;12.02;;;2.08;;
74291;SDS011;62687;55.738;37.516;2023-07-31T12:26:33;3.47;;;1.50;;
74291;SDS011;62687;55.738;37.516;2023-07-31T12:29:17;5.57;;;1.80;;
74291;SDS011;62687;55.738;37.516;2023-07-31T12:32:01;5.35;;;1.92;;
74291;SDS011;62687;55.738;37.516;2023-07-31T12:34:45;3.55;;;1.80;;
74291;SDS011;62687;55.738;37.516;2023-07-31T12:37:29;4.90;;;1.77;;
74291;SDS011;62687;55.738;37.516;2023-07-31T12:40:13;5.90;;;2.10;;
74291;SDS011;62687;55.738;37.516;2023-07-31T12:42:57;4.00;;;1.75;;
74291;SDS011;62687;55.738;37.516;2023-07-31T12:48:25;4.65;;;2.17;;
74291;SDS011;62687;55.738;37.516;2023-07-31T12:51:10;5.47;;;2.03;;
74291;SDS011;62687;55.738;37.516;2023-07-31T12:53:53;5.43;;;2.05;;
74291;SDS011;62687;55.738;37.516;2023-07-31T12:56:37;5.28;;;2.00;;
74291;SDS011;62687;55.738;37.516;2023-07-31T12:59:21;6.80;;;1.60;;
74291;SDS011;62687;55.738;37.516;2023-07-31T13:02:05;9.48;;;2.30;;
74291;SDS011;62687;55.738;37.516;2023-07-31T13:04:49;5.93;;;1.73;;
74291;SDS011;62687;55.738;37.516;2023-07-31T13:07:34;8.57;;;1.80;;
74291;SDS011;62687;55.738;37.516;2023-07-31T13:10:18;5.68;;;1.77;;
74291;SDS011;62687;55.738;37.516;2023-07-31T13:13:02;3.20;;;1.75;;
74291;SDS011;62687;55.738;37.516;2023-07-31T13:15:45;4.63;;;1.58;;
74291;SDS011;62687;55.738;37.516;2023-07-31T13:18:29;9.73;;;2.50;;
74291;SDS011;62687;55.738;37.516;2023-07-31T13:21:13;8.55;;;2.03;;
74291;SDS011;62687;55.738;37.516;2023-07-31T13:23:57;2.00;;;1.15;;
74291;SDS011;62687;55.738;37.516;2023-07-31T13:26:44;6.47;;;1.75;;
74291;SDS011;62687;55.738;37.516;2023-07-31T13:29:28;5.32;;;1.58;;
74291;SDS011;62687;55.738;37.516;2023-07-31T13:32:13;14.73;;;2.63;;
74291;SDS011;62687;55.738;37.516;2023-07-31T13:34:57;4.78;;;1.90;;
74291;SDS011;62687;55.738;37.516;2023-07-31T13:37:41;7.72;;;2.05;;
74291;SDS011;62687;55.738;37.516;2023-07-31T13:40:25;5.90;;;1.77;;
74291;SDS011;62687;55.738;37.516;2023-07-31T13:43:09;8.82;;;2.13;;
74291;SDS011;62687;55.738;37.516;2023-07-31T13:45:53;5.65;;;2.17;;
74291;SDS011;62687;55.738;37.516;2023-07-31T13:48:37;4.55;;;2.53;;
74291;SDS011;62687;55.738;37.516;2023-07-31T13:51:21;3.30;;;1.25;;
74291;SDS011;62687;55.738;37.516;2023-07-31T13:54:05;6.75;;;1.63;;
74291;SDS011;62687;55.738;37.516;2023-07-31T13:56:52;4.80;;;1.70;;
74291;SDS011;62687;55.738;37.516;2023-07-31T13:59:37;9.45;;;1.73;;
74291;SDS011;62687;55.738;37.516;2023-07-31T14:02:21;7.22;;;1.30;;
74291;SDS011;62687;55.738;37.516;2023-07-31T14:05:05;2.97;;;1.60;;
74291;SDS011;62687;55.738;37.516;2023-07-31T14:07:49;8.70;;;1.90;;
74291;SDS011;62687;55.738;37.516;2023-07-31T14:10:33;3.72;;;1.67;;
74291;SDS011;62687;55.738;37.516;2023-07-31T14:13:17;7.90;;;1.60;;
74291;SDS011;62687;55.738;37.516;2023-07-31T14:16:01;8.73;;;1.85;;
74291;SDS011;62687;55.738;37.516;2023-07-31T14:18:45;7.97;;;1.67;;
74291;SDS011;62687;55.738;37.516;2023-07-31T14:21:29;8.40;;;2.88;;
74291;SDS011;62687;55.738;37.516;2023-07-31T14:24:13;12.70;;;2.35;;
74291;SDS011;62687;55.738;37.516;2023-07-31T14:26:57;5.68;;;1.98;;
74291;SDS011;62687;55.738;37.516;2023-07-31T14:29:41;10.27;;;1.88;;
74291;SDS011;62687;55.738;37.516;2023-07-31T14:32:25;10.35;;;2.50;;
74291;SDS011;62687;55.738;37.516;2023-07-31T14:35:09;7.88;;;2.00;;
74291;SDS011;62687;55.738;37.516;2023-07-31T14:37:53;6.07;;;1.70;;
74291;SDS011;62687;55.738;37.516;2023-07-31T14:40:37;4.38;;;1.80;;
74291;SDS011;62687;55.738;37.516;2023-07-31T14:43:22;6.72;;;1.92;;
74291;SDS011;62687;55.738;37.516;2023-07-31T14:46:06;5.65;;;2.03;;
74291;SDS011;62687;55.738;37.516;2023-07-31T14:48:50;4.47;;;2.10;;
74291;SDS011;62687;55.738;37.516;2023-07-31T14:51:34;7.07;;;2.42;;
74291;SDS011;62687;55.738;37.516;2023-07-31T14:54:18;7.85;;;1.90;;
74291;SDS011;62687;55.738;37.516;2023-07-31T14:57:02;6.10;;;2.40;;
74291;SDS011;62687;55.738;37.516;2023-07-31T14:59:46;14.13;;;3.30;;
74291;SDS011;62687;55.738;37.516;2023-07-31T15:02:30;7.07;;;2.00;;
74291;SDS011;62687;55.738;37.516;2023-07-31T15:05:16;9.02;;;2.00;;
74291;SDS011;62687;55.738;37.516;2023-07-31T15:08:00;6.22;;;2.10;;
74291;SDS011;62687;55.738;37.516;2023-07-31T15:10:44;5.07;;;2.50;;
74291;SDS011;62687;55.738;37.516;2023-07-31T15:13:28;7.07;;;2.05;;
74291;SDS011;62687;55.738;37.516;2023-07-31T15:16:14;5.93;;;2.75;;
74291;SDS011;62687;55.738;37.516;2023-07-31T15:18:58;6.78;;;2.22;;
74291;SDS011;62687;55.738;37.516;2023-07-31T15:21:43;3.67;;;2.13;;
74291;SDS011;62687;55.738;37.516;2023-07-31T15:24:37;7.68;;;2.33;;
74291;SDS011;62687;55.738;37.516;2023-07-31T15:27:24;8.52;;;2.08;;
74291;SDS011;62687;55.738;37.516;2023-07-31T15:30:09;5.53;;;2.30;;
74291;SDS011;62687;55.738;37.516;2023-07-31T15:32:58;6.28;;;2.28;;
74291;SDS011;62687;55.738;37.516;2023-07-31T15:35:44;7.75;;;2.45;;
74291;SDS011;62687;55.738;37.516;2023-07-31T15:38:35;4.32;;;2.10;;
74291;SDS011;62687;55.738;37.516;2023-07-31T15:41:22;7.68;;;2.22;;
74291;SDS011;62687;55.738;37.516;2023-07-31T15:44:12;4.90;;;2.08;;
74291;SDS011;62687;55.738;37.516;2023-07-31T15:46:57;5.85;;;2.38;;
74291;SDS011;62687;55.738;37.516;2023-07-31T15:49:43;4.97;;;2.60;;
74291;SDS011;62687;55.738;37.516;2023-07-31T15:52:29;12.70;;;3.67;;
74291;SDS011;62687;55.738;37.516;2023-07-31T15:55:15;8.88;;;2.30;;
74291;SDS011;62687;55.738;37.516;2023-07-31T15:58:05;6.07;;;2.00;;
74291;SDS011;62687;55.738;37.516;2023-07-31T16:00:51;6.57;;;2.25;;
74291;SDS011;62687;55.738;37.516;2023-07-31T16:03:36;9.52;;;2.33;;
74291;SDS011;62687;55.738;37.516;2023-07-31T16:06:23;5.82;;;2.40;;
74291;SDS011;62687;55.738;37.516;2023-07-31T16:09:09;7.70;;;2.70;;
74291;SDS011;62687;55.738;37.516;2023-07-31T16:11:57;6.22;;;2.22;;
74291;SDS011;62687;55.738;37.516;2023-07-31T16:14:45;7.60;;;2.70;;
74291;SDS011;62687;55.738;37.516;2023-07-31T16:17:29;12.70;;;4.03;;
74291;SDS011;62687;55.738;37.516;2023-07-31T16:20:13;14.25;;;6.32;;
74291;SDS011;62687;55.738;37.516;2023-07-31T16:22:57;9.43;;;3.72;;
74291;SDS011;62687;55.738;37.516;2023-07-31T16:25:41;8.55;;;3.15;;
74291;SDS011;62687;55.738;37.516;2023-07-31T16:28:25;11.07;;;3.03;;
74291;SDS011;62687;55.738;37.516;2023-07-31T16:31:09;5.22;;;2.30;;
74291;SDS011;62687;55.738;37.516;2023-07-31T16:33:53;6.85;;;2.72;;
74291;SDS011;62687;55.738;37.516;2023-07-31T16:36:38;6.22;;;2.55;;
74291;SDS011;62687;55.738;37.516;2023-07-31T16:39:25;7.35;;;2.65;;
74291;SDS011;62687;55.738;37.516;2023-07-31T16:42:09;8.73;;;2.42;;
74291;SDS011;62687;55.738;37.516;2023-07-31T16:44:53;11.50;;;3.20;;
74291;SDS011;62687;55.738;37.516;2023-07-31T16:47:37;5.82;;;2.22;;
74291;SDS011;62687;55.738;37.516;2023-07-31T16:50:21;13.38;;;3.35;;
74291;SDS011;62687;55.738;37.516;2023-07-31T16:53:07;13.32;;;3.05;;
74291;SDS011;62687;55.738;37.516;2023-07-31T16:55:51;8.13;;;2.75;;